Time;durP1;ratioP1;P1;durP2;ratioP2;P2;SDS_P1;SDS_P2;PMS_P1;PMS_P2;Temp;Humidity;BMP_temperature;BMP_pressure;BME280_temperature;BME280_humidity;BME280_pressure;Samples;Min_cycle;Max_cycle;Signal;HPM_P1;HPM_P2
2022/09/18 00:01:35;;;;;;;;;;;;;;;9.79;90.73;97237.91;105182;1283;138599;-69
2022/09/18 00:04:05;;;;;;;5.70;3.00;;;;;;;9.74;91.15;97236.92;105395;1280;22551;-69
2022/09/18 00:06:37;;;;;;;4.20;2.70;;;;;;;9.68;91.40;97234.47;105397;1280;24110;-71
2022/09/18 00:09:08;;;;;;;6.10;2.40;;;;;;;9.63;91.73;97235.60;105309;1280;138310;-68
2022/09/18 00:11:41;;;;;;;5.90;2.60;;;;;;;9.58;92.00;97228.64;105378;1280;25390;-69
2022/09/18 00:14:14;;;;;;;7.20;2.50;;;;;;;9.52;92.27;97224.43;105279;1280;138374;-69
2022/09/18 00:16:42;;;;;;;5.00;2.40;;;;;;;9.47;92.49;97218.30;105392;1280;22540;-68
2022/09/18 00:19:10;;;;;;;5.70;2.60;;;;;;;9.43;92.92;97214.20;105581;1280;24436;-69
2022/09/18 00:21:42;;;;;;;5.90;3.30;;;;;;;9.38;93.17;97215.71;105259;1281;138577;-68
2022/09/18 00:24:11;;;;;;;6.10;2.70;;;;;;;9.35;93.42;97216.14;105353;1281;25434;-68
2022/09/18 00:26:46;;;;;;;7.30;3.40;;;;;;;9.31;93.56;97216.52;105256;1281;138134;-69
2022/09/18 00:29:17;;;;;;;11.00;3.60;;;;;;;9.28;93.76;97214.11;105410;1280;24262;-68
2022/09/18 00:31:47;;;;;;;8.30;3.70;;;;;;;9.27;93.97;97215.52;105250;1280;138797;-69
2022/09/18 00:34:15;;;;;;;6.70;3.60;;;;;;;9.25;94.26;97214.75;105368;1280;23923;-68
2022/09/18 00:36:42;;;;;;;5.70;3.60;;;;;;;9.23;94.51;97211.44;105237;1280;22596;-71
2022/09/18 00:39:10;;;;;;;7.60;4.50;;;;;;;9.20;94.74;97216.27;105300;1280;138313;-69
2022/09/18 00:41:40;;;;;;;8.20;4.10;;;;;;;9.19;94.77;97218.21;104151;1281;1717796;-68
2022/09/18 00:44:37;;;;;;;6.80;4.20;;;;;;;9.17;95.11;97221.84;105303;1281;138734;-69
2022/09/18 00:47:15;;;;;;;9.00;4.80;;;;;;;9.14;95.25;97219.34;105478;1281;25324;-69
2022/09/18 00:49:58;;;;;;;7.10;4.20;;;;;;;9.12;95.30;97222.70;105147;1280;138357;-69
2022/09/18 00:52:30;;;;;;;8.30;4.70;;;;;;;9.11;95.55;97220.73;105316;1280;25295;-69
2022/09/18 00:55:08;;;;;;;6.10;4.40;;;;;;;9.10;95.66;97220.52;105394;1280;22538;-69
2022/09/18 00:57:42;;;;;;;6.00;4.40;;;;;;;9.08;95.63;97221.43;105278;1280;138309;-70
2022/09/18 01:00:14;;;;;;;8.30;3.90;;;;;;;9.08;95.95;97220.89;105303;1281;22564;-69
2022/09/18 01:02:45;;;;;;;7.20;4.10;;;;;;;9.07;95.80;97218.44;105215;1281;138432;-69
2022/09/18 01:05:16;;;;;;;6.70;4.20;;;;;;;9.06;96.01;97218.27;105354;1281;22978;-69
2022/09/18 01:07:58;;;;;;;7.90;3.80;;;;;;;9.06;95.89;97217.52;105190;1281;138782;-69
2022/09/18 01:10:29;;;;;;;7.60;4.60;;;;;;;9.06;95.87;97219.41;105345;1280;24319;-69
2022/09/18 01:13:08;;;;;;;7.20;4.30;;;;;;;9.07;96.09;97217.41;105351;1280;24482;-70
2022/09/18 01:15:40;;;;;;;;;;;;;;;9.09;96.15;97213.19;105287;1280;138221;-69
2022/09/18 01:18:51;;;;;;;6.80;4.60;;;;;;;9.08;96.00;97216.66;105386;1280;25316;-69
2022/09/18 01:21:30;;;;;;;6.80;4.70;;;;;;;9.08;95.91;97215.13;105239;1281;138266;-72
2022/09/18 01:24:15;;;;;;;8.60;5.00;;;;;;;9.07;95.89;97213.55;105299;1281;25424;-69
2022/09/18 01:26:56;;;;;;;8.10;4.90;;;;;;;9.06;96.08;97213.81;105292;1281;138216;-69
2022/09/18 01:29:54;;;;;;;11.00;5.00;;;;;;;9.06;95.90;97213.11;105281;1280;23873;-70
2022/09/18 01:32:36;;;;;;;8.20;4.50;;;;;;;9.04;95.96;97212.95;105291;1280;138752;-69
2022/09/18 01:35:39;;;;;;;11.30;5.40;;;;;;;9.03;96.01;97214.63;105221;1280;22688;-69
2022/09/18 01:38:12;;;;;;;5.80;3.20;;;;;;;9.02;96.15;97211.47;104556;1287;138779;-69
2022/09/18 01:40:46;;;;;;;5.90;3.50;;;;;;;9.00;95.92;97215.59;104752;1286;24347;-69
2022/09/18 01:43:17;;;;;;;5.80;3.90;;;;;;;8.98;95.97;97219.39;104777;1286;26255;-69
2022/09/18 01:45:48;;;;;;;6.90;3.70;;;;;;;8.96;96.05;97219.75;104678;1286;138352;-69
2022/09/18 01:48:38;;;;;;;6.00;2.80;;;;;;;8.94;95.91;97217.09;104775;1286;26032;-69
2022/09/18 01:51:35;;;;;;;8.20;3.50;;;;;;;8.89;95.87;97217.99;104910;1286;138197;-69
2022/09/18 01:54:09;;;;;;;6.20;2.90;;;;;;;8.87;95.78;97221.94;104706;1287;22548;-69
2022/09/18 01:57:09;;;;;;;5.90;3.20;;;;;;;8.86;95.84;97221.67;104560;1289;138658;-69
2022/09/18 01:59:45;;;;;;;7.50;2.90;;;;;;;8.85;95.83;97224.05;104594;1288;22584;-69
2022/09/18 02:02:39;;;;;;;4.60;3.10;;;;;;;8.82;95.73;97226.70;104568;1288;138277;-69
2022/09/18 02:05:13;;;;;;;8.10;2.70;;;;;;;8.79;95.53;97227.70;104703;1287;25261;-69
2022/09/18 02:07:45;;;;;;;8.80;3.80;;;;;;;8.77;95.70;97232.25;104587;1287;138771;-69
2022/09/18 02:10:15;;;;;;;7.20;3.30;;;;;;;8.74;95.63;97232.23;104679;1287;22640;-69
2022/09/18 02:12:45;;;;;;;5.60;3.00;;;;;;;8.70;95.53;97231.58;104680;1287;22553;-69
2022/09/18 02:15:14;;;;;;;4.80;2.40;;;;;;;8.67;95.42;97235.30;104769;1282;138662;-70
2022/09/18 02:18:01;;;;;;;4.40;2.30;;;;;;;8.65;95.32;97239.09;104940;1282;22551;-69
2022/09/18 02:20:37;;;;;;;6.90;2.40;;;;;;;8.60;95.37;97242.80;104856;1282;138687;-69
2022/09/18 02:23:06;;;;;;;4.50;2.70;;;;;;;8.56;95.26;97238.55;105265;1281;22532;-69
2022/09/18 02:25:42;;;;;;;6.80;2.70;;;;;;;8.54;95.38;97242.61;104900;1283;138736;-69
2022/09/18 02:28:12;;;;;;;6.80;2.70;;;;;;;8.51;95.43;97238.57;105333;1281;24519;-69
2022/09/18 02:30:43;;;;;;;5.00;2.50;;;;;;;8.49;95.38;97238.52;105511;1280;24387;-69
2022/09/18 02:33:34;;;;;;;5.20;2.20;;;;;;;8.46;95.28;97242.39;105475;1280;138608;-69
2022/09/18 02:36:10;;;;;;;8.10;2.60;;;;;;;8.42;95.30;97238.66;108477;1280;22523;-69
2022/09/18 02:38:46;;;;;;;6.10;2.30;;;;;;;8.40;95.12;97243.84;106141;1280;138850;-71
2022/09/18 02:41:40;;;;;;;6.20;2.40;;;;;;;8.39;95.01;97244.31;105883;1280;25645;-69
2022/09/18 02:44:18;;;;;;;4.80;2.10;;;;;;;8.37;95.12;97242.84;105530;1281;139332;-69
2022/09/18 02:47:07;;;;;;;7.90;2.20;;;;;;;8.35;95.02;97244.73;105711;1281;22722;-70
2022/09/18 02:50:13;;;;;;;9.20;2.60;;;;;;;8.31;95.08;97246.33;105841;1281;138455;-70
2022/09/18 02:53:27;;;;;;;5.60;2.50;;;;;;;8.30;95.04;97251.09;105822;1280;25248;-70
2022/09/18 02:56:15;;;;;;;9.30;2.40;;;;;;;8.30;95.48;97251.47;105753;1280;138367;-70
2022/09/18 02:58:53;;;;;;;7.40;2.90;;;;;;;8.29;95.40;97250.27;105080;1287;24247;-69
2022/09/18 03:01:24;;;;;;;6.90;2.80;;;;;;;8.29;95.39;97252.39;105325;1287;22546;-70
2022/09/18 03:03:51;;;;;;;8.10;2.80;;;;;;;8.31;95.36;97253.27;105349;1287;22684;-70
2022/09/18 03:06:23;;;;;;;6.60;2.70;;;;;;;8.31;95.11;97255.13;105455;1286;22691;-70
2022/09/18 03:08:50;;;;;;;10.70;3.40;;;;;;;8.31;95.14;97251.37;105366;1286;139247;-70
2022/09/18 03:11:17;;;;;;;10.10;3.10;;;;;;;8.31;94.94;97255.33;105667;1286;23116;-70
2022/09/18 03:13:44;;;;;;;8.90;3.60;;;;;;;8.30;94.85;97250.05;104923;1286;138582;-72
2022/09/18 03:16:11;;;;;;;8.00;3.80;;;;;;;8.30;94.83;97250.55;104965;1286;24420;-71
2022/09/18 03:18:38;;;;;;;7.80;4.00;;;;;;;8.30;94.73;97251.19;104827;1285;25388;-69
2022/09/18 03:21:06;;;;;;;8.80;3.90;;;;;;;8.30;94.79;97250.16;105101;1287;138580;-69
2022/09/18 03:23:32;;;;;;;11.00;3.90;;;;;;;8.30;94.94;97252.44;104524;1287;22761;-69
2022/09/18 03:26:13;;;;;;;10.50;3.80;;;;;;;8.29;94.96;97249.35;104522;1287;138391;-70
2022/09/18 03:28:43;;;;;;;10.00;3.80;;;;;;;8.29;94.72;97250.92;104752;1287;22578;-69
2022/09/18 03:31:10;;;;;;;7.50;3.00;;;;;;;8.29;94.90;97255.16;104670;1287;25312;-69
2022/09/18 03:33:37;;;;;;;8.20;3.40;;;;;;;8.29;94.73;97253.54;104582;1287;138289;-69
2022/09/18 03:36:05;;;;;;;7.90;3.90;;;;;;;8.28;94.83;97256.40;104852;1281;25390;-69
2022/09/18 03:38:33;;;;;;;6.00;3.60;;;;;;;8.29;94.60;97259.98;105199;1281;138571;-70
2022/09/18 03:41:00;;;;;;;9.70;3.70;;;;;;;8.29;95.00;97266.45;105340;1281;22598;-69
2022/09/18 03:43:28;;;;;;;8.40;3.70;;;;;;;8.28;94.93;97267.46;105186;1281;139227;-70
2022/09/18 03:45:55;;;;;;;9.50;4.40;;;;;;;8.29;95.14;97268.83;105304;1280;24245;-70
2022/09/18 03:48:22;;;;;;;7.50;3.80;;;;;;;8.28;94.94;97270.67;105364;1280;23935;-69
2022/09/18 03:50:50;;;;;;;8.50;4.00;;;;;;;8.28;94.92;97269.63;105250;1280;138321;-69
2022/09/18 03:53:17;;;;;;;13.70;4.70;;;;;;;8.27;95.01;97268.66;105363;1280;25258;-69
2022/09/18 03:56:10;;;;;;;8.60;4.00;;;;;;;8.27;95.05;97271.89;105224;1280;138770;-69
2022/09/18 03:58:56;;;;;;;8.70;4.30;;;;;;;8.25;94.95;97274.82;105493;1280;22547;-69
2022/09/18 04:01:46;;;;;;;10.50;5.00;;;;;;;8.24;95.19;97277.79;105186;1280;138462;-69
2022/09/18 04:04:28;;;;;;;10.50;4.50;;;;;;;8.22;95.23;97279.52;105351;1280;24272;-71
2022/09/18 04:07:10;;;;;;;11.30;4.50;;;;;;;8.20;95.15;97284.16;105329;1280;30214;-71
2022/09/18 04:09:47;;;;;;;10.80;5.20;;;;;;;8.19;95.15;97287.20;105265;1280;138225;-70
2022/09/18 04:12:15;;;;;;;12.90;5.30;;;;;;;8.17;95.11;97289.41;105353;1280;26956;-70
2022/09/18 04:14:43;;;;;;;13.60;5.20;;;;;;;8.15;95.43;97289.38;105271;1280;138324;-70
2022/09/18 04:17:10;;;;;;;11.00;5.70;;;;;;;8.13;95.07;97288.27;105288;1280;23099;-70
2022/09/18 04:19:37;;;;;;;10.40;5.30;;;;;;;8.10;95.52;97290.90;105224;1280;139225;-70
2022/09/18 04:22:04;;;;;;;14.20;6.30;;;;;;;8.10;95.39;97291.45;105286;1280;22637;-70
2022/09/18 04:24:31;;;;;;;12.20;6.00;;;;;;;8.08;95.21;97294.09;105300;1280;25313;-69
2022/09/18 04:27:01;;;;;;;11.90;5.70;;;;;;;8.07;95.17;97296.57;105269;1280;138462;-71
2022/09/18 04:29:28;;;;;;;11.80;5.20;;;;;;;8.04;95.22;97294.59;105432;1280;22554;-70
2022/09/18 04:31:57;;;;;;;9.80;5.80;;;;;;;8.01;95.13;97296.75;105089;1280;139010;-69
2022/09/18 04:34:25;;;;;;;12.10;6.40;;;;;;;7.99;95.30;97298.50;105232;1280;24276;-69
2022/09/18 04:36:53;;;;;;;11.30;5.90;;;;;;;7.96;95.32;97296.96;105376;1280;25306;-70
2022/09/18 04:39:20;;;;;;;19.10;7.10;;;;;;;7.95;95.42;97298.80;105266;1280;138701;-70
2022/09/18 04:41:49;;;;;;;11.40;5.60;;;;;;;7.91;95.11;97302.83;105366;1280;24560;-70
2022/09/18 04:44:17;;;;;;;;;;;;;;;7.89;95.56;97301.94;105269;1280;138542;-70
2022/09/18 04:46:43;;;;;;;13.00;5.40;;;;;;;7.87;95.58;97302.30;105218;1280;22599;-70
2022/09/18 04:49:10;;;;;;;9.30;5.20;;;;;;;7.86;95.49;97303.70;105370;1280;25382;-70
2022/09/18 04:51:38;;;;;;;16.00;6.80;;;;;;;7.83;95.28;97303.39;105260;1280;138378;-69
2022/09/18 04:54:05;;;;;;;13.20;6.80;;;;;;;7.81;95.42;97308.48;105201;1280;25785;-72
2022/09/18 04:56:35;;;;;;;12.60;7.40;;;;;;;7.79;95.48;97309.54;105291;1280;138387;-71
2022/09/18 04:59:02;;;;;;;12.20;6.80;;;;;;;7.78;95.67;97318.58;105438;1280;24391;-70
2022/09/18 05:01:32;;;;;;;13.10;6.90;;;;;;;7.77;95.44;97314.83;105093;1283;139132;-71
2022/09/18 05:04:03;;;;;;;14.60;7.40;;;;;;;7.78;95.57;97312.89;105631;1280;25414;-70
2022/09/18 05:06:42;;;;;;;14.00;6.50;;;;;;;7.79;95.65;97319.61;105414;1280;25258;-70
2022/09/18 05:09:09;;;;;;;17.50;8.10;;;;;;;7.77;95.77;97317.65;105366;1280;138893;-70
2022/09/18 05:11:37;;;;;;;14.00;8.10;;;;;;;7.78;95.88;97317.77;105321;1280;25687;-71
2022/09/18 05:14:04;;;;;;;15.60;7.40;;;;;;;7.78;95.83;97320.86;105131;1280;139071;-70
2022/09/18 05:16:33;;;;;;;14.30;7.90;;;;;;;7.78;95.70;97318.79;105195;1280;24242;-70
2022/09/18 05:19:22;;;;;;;15.10;6.50;;;;;;;7.78;95.92;97324.11;105346;1280;25380;-70
2022/09/18 05:21:50;;;;;;;11.70;6.00;;;;;;;7.78;95.75;97325.56;105266;1280;138601;-71
2022/09/18 05:24:17;;;;;;;10.10;5.90;;;;;;;7.77;95.98;97327.40;105398;1280;25255;-70
2022/09/18 05:26:44;;;;;;;13.20;6.00;;;;;;;7.76;95.76;97325.94;105195;1280;138305;-71
2022/09/18 05:29:11;;;;;;;8.70;4.10;;;;;;;7.76;95.83;97328.81;105502;1280;22562;-70
2022/09/18 05:31:40;;;;;;;10.90;5.60;;;;;;;7.77;96.09;97332.11;105252;1280;138888;-69
2022/09/18 05:34:09;;;;;;;8.90;4.40;;;;;;;7.78;95.96;97331.27;105428;1280;22544;-71
2022/09/18 05:36:38;;;;;;;11.90;4.10;;;;;;;7.79;95.87;97331.48;105386;1280;22562;-69
2022/09/18 05:39:05;;;;;;;12.10;4.60;;;;;;;7.81;96.06;97328.41;105173;1280;138821;-70
2022/09/18 05:41:32;;;;;;;8.40;3.60;;;;;;;7.85;96.12;97330.46;105311;1281;22605;-70
2022/09/18 05:44:02;;;;;;;8.90;4.50;;;;;;;7.89;96.12;97329.31;105198;1280;138919;-72
2022/09/18 05:46:29;;;;;;;6.90;4.20;;;;;;;7.92;95.97;97332.86;105375;1280;22538;-69
2022/09/18 05:48:59;;;;;;;8.20;4.40;;;;;;;7.95;95.57;97328.29;105366;1280;22554;-70
2022/09/18 05:51:26;;;;;;;9.10;4.50;;;;;;;7.98;95.46;97333.05;105187;1280;138390;-73
2022/09/18 05:53:53;;;;;;;7.70;4.40;;;;;;;8.01;95.09;97328.79;105214;1280;24322;-70
2022/09/18 05:56:37;;;;;;;8.00;5.00;;;;;;;8.04;95.11;97330.05;105193;1281;138882;-71
2022/09/18 05:59:04;;;;;;;10.30;5.50;;;;;;;8.07;94.81;97331.77;105210;1282;22552;-71
2022/09/18 06:01:30;;;;;;;10.70;6.30;;;;;;;8.10;94.80;97331.54;105080;1280;138871;-71
2022/09/18 06:04:20;;;;;;;13.30;5.80;;;;;;;8.14;94.53;97330.77;105285;1280;22563;-72
2022/09/18 06:07:00;;;;;;;10.20;5.40;;;;;;;8.18;94.48;97334.59;105354;1280;22525;-71
2022/09/18 06:09:27;;;;;;;12.10;6.70;;;;;;;8.21;94.27;97330.97;105184;1280;138544;-71
2022/09/18 06:11:54;;;;;;;14.40;6.20;;;;;;;8.27;94.14;97332.44;105238;1281;22616;-71
2022/09/18 06:14:22;;;;;;;10.10;6.00;;;;;;;8.32;93.83;97332.80;105184;1282;138795;-72
2022/09/18 06:16:50;;;;;;;10.40;6.00;;;;;;;8.39;93.55;97337.04;105263;1281;22622;-73
2022/09/18 06:19:17;;;;;;;11.20;6.20;;;;;;;8.46;93.55;97337.30;105212;1280;25418;-72
2022/09/18 06:21:44;;;;;;;12.90;5.90;;;;;;;8.56;93.66;97337.27;105248;1280;138331;-72
2022/09/18 06:24:14;;;;;;;9.40;5.70;;;;;;;8.66;93.98;97336.52;105383;1280;22585;-73
2022/09/18 06:27:17;;;;;;;8.90;5.80;;;;;;;8.77;93.51;97337.90;105129;1280;138372;-71
2022/09/18 06:29:45;;;;;;;8.60;6.00;;;;;;;8.85;93.09;97338.02;105348;1280;22540;-70
2022/09/18 06:32:23;;;;;;;6.30;4.80;;;;;;;8.89;92.10;97337.88;105273;1280;138515;-70
2022/09/18 06:34:49;;;;;;;8.80;5.30;;;;;;;8.90;91.66;97341.96;105501;1280;22775;-71
2022/09/18 06:37:16;;;;;;;9.40;4.50;;;;;;;8.93;90.94;97341.75;105368;1280;23214;-70
2022/09/18 06:39:44;;;;;;;9.10;4.80;;;;;;;8.93;90.18;97344.96;105245;1280;138282;-74
2022/09/18 06:42:21;;;;;;;7.00;5.00;;;;;;;8.92;90.10;97341.65;105210;1280;25248;-70
2022/09/18 06:45:02;;;;;;;8.50;4.20;;;;;;;8.95;89.60;97350.45;105269;1280;138581;-72
2022/09/18 06:47:29;;;;;;;7.00;4.60;;;;;;;8.95;89.46;97347.41;105377;1280;25089;-72
2022/09/18 06:49:56;;;;;;;6.20;4.10;;;;;;;9.01;89.79;97348.15;105211;1280;138759;-74
2022/09/18 06:52:23;;;;;;;8.60;4.80;;;;;;;9.08;89.85;97348.95;105203;1280;24318;-71
2022/09/18 06:54:53;;;;;;;5.40;3.80;;;;;;;9.13;89.31;97347.20;105468;1280;24329;-73
2022/09/18 06:57:41;;;;;;;4.80;3.70;;;;;;;9.17;88.76;97350.54;105266;1280;138436;-74
2022/09/18 07:00:12;;;;;;;7.70;3.70;;;;;;;9.22;89.02;97348.76;105378;1280;22548;-73
2022/09/18 07:02:40;;;;;;;4.90;3.40;;;;;;;9.29;88.88;97353.48;105596;1280;138906;-71
2022/09/18 07:05:31;;;;;;;8.60;3.70;;;;;;;9.32;87.01;97352.24;105803;1280;24329;-74
2022/09/18 07:07:59;;;;;;;5.40;3.50;;;;;;;9.37;87.82;97352.70;105313;1283;141595;-72
2022/09/18 07:10:28;;;;;;;;;;;;;;;9.42;87.49;97356.86;105556;1280;23007;-73
2022/09/18 07:12:59;;;;;;;7.10;3.50;;;;;;;9.49;87.27;97358.46;106204;1280;24245;-72
2022/09/18 07:15:27;;;;;;;5.20;3.60;;;;;;;9.54;87.02;97355.77;105324;1280;138677;-74
2022/09/18 07:17:59;;;;;;;7.00;3.90;;;;;;;9.62;87.21;97356.52;105258;1280;25239;-73
2022/09/18 07:20:26;;;;;;;5.90;3.30;;;;;;;9.69;86.32;97357.88;105222;1281;138591;-71
2022/09/18 07:22:59;;;;;;;6.00;3.20;;;;;;;9.71;85.32;97365.84;105614;1280;25375;-72
2022/09/18 07:25:37;;;;;;;4.40;3.10;;;;;;;9.71;84.85;97365.34;105505;1280;138514;-74
2022/09/18 07:28:06;;;;;;;7.40;3.70;;;;;;;9.72;85.37;97363.39;105482;1283;23014;-73
2022/09/18 07:30:35;;;;;;;4.70;3.20;;;;;;;9.78;85.18;97362.59;105901;1280;22535;-71
2022/09/18 07:33:06;;;;;;;4.60;3.20;;;;;;;9.81;84.62;97364.11;105282;1280;138359;-72
2022/09/18 07:35:38;;;;;;;6.90;3.10;;;;;;;9.84;84.00;97362.13;105338;1280;24627;-71
2022/09/18 07:38:06;;;;;;;5.20;3.50;;;;;;;9.86;83.76;97360.61;105241;1280;138896;-71
2022/09/18 07:40:51;;;;;;;5.60;3.40;;;;;;;9.91;83.72;97359.80;105226;1280;22544;-73
2022/09/18 07:43:30;;;;;;;5.90;2.80;;;;;;;9.96;83.60;97361.13;105297;1280;139102;-73
2022/09/18 07:45:57;;;;;;;4.00;2.40;;;;;;;10.00;83.41;97357.22;105225;1280;22574;-73
2022/09/18 07:48:24;;;;;;;4.00;2.70;;;;;;;10.04;83.51;97352.98;105374;1280;22540;-73
2022/09/18 07:50:56;;;;;;;3.90;2.70;;;;;;;10.06;82.87;97350.38;105270;1280;138699;-72
2022/09/18 07:53:25;;;;;;;3.60;3.10;;;;;;;10.04;82.34;97354.61;105247;1280;24318;-71
2022/09/18 07:55:54;;;;;;;4.50;2.80;;;;;;;10.03;82.81;97357.02;105345;1280;138839;-72
2022/09/18 07:58:24;;;;;;;3.70;2.70;;;;;;;10.04;82.95;97360.77;105275;1280;24242;-72
2022/09/18 08:01:20;;;;;;;3.70;2.30;;;;;;;10.07;82.80;97363.44;105120;1282;22537;-73
2022/09/18 08:03:50;;;;;;;3.20;2.90;;;;;;;10.09;82.55;97366.88;105243;1282;22534;-73
2022/09/18 08:06:20;;;;;;;3.00;1.90;;;;;;;10.11;82.17;97364.16;105251;1281;22569;-74
2022/09/18 08:09:11;;;;;;;3.20;2.10;;;;;;;10.13;82.35;97364.59;105218;1281;138943;-71
2022/09/18 08:11:57;;;;;;;5.10;2.30;;;;;;;10.17;81.86;97366.72;105352;1280;22818;-70
2022/09/18 08:14:50;;;;;;;2.80;1.90;;;;;;;10.20;81.30;97368.36;105925;1280;138694;-71
2022/09/18 08:17:25;;;;;;;2.60;2.00;;;;;;;10.23;81.11;97365.33;105945;1278;22577;-72
2022/09/18 08:20:11;;;;;;;4.00;1.90;;;;;;;10.31;80.63;97364.47;105312;1280;139145;-70
2022/09/18 08:22:44;;;;;;;4.90;2.00;;;;;;;10.34;80.64;97365.91;105398;1280;22566;-70
2022/09/18 08:25:13;;;;;;;3.90;2.00;;;;;;;10.38;79.95;97362.48;105406;1280;25285;-71
2022/09/18 08:27:43;;;;;;;4.00;2.20;;;;;;;10.40;79.89;97361.39;105344;1280;138418;-73
2022/09/18 08:30:13;;;;;;;3.20;1.70;;;;;;;10.46;80.49;97359.39;105681;1280;22674;-71
2022/09/18 08:32:41;;;;;;;4.80;1.90;;;;;;;10.52;79.77;97358.95;106467;1280;142074;-72
2022/09/18 08:35:09;;;;;;;2.00;1.80;;;;;;;10.53;78.91;97353.30;105945;1281;25245;-72
2022/09/18 08:37:46;;;;;;;3.00;2.00;;;;;;;10.54;78.34;97353.84;106836;1280;139401;-72
2022/09/18 08:40:41;;;;;;;3.30;2.00;;;;;;;10.57;77.98;97352.47;106409;1280;25492;-71
2022/09/18 08:43:43;;;;;;;4.20;1.90;;;;;;;10.62;78.94;97361.30;106434;1280;22490;-72
2022/09/18 08:46:34;;;;;;;4.00;2.10;;;;;;;10.59;78.34;97352.59;106378;1280;23202;-74
2022/09/18 08:49:28;;;;;;;4.10;2.00;;;;;;;10.60;79.07;97357.16;105887;1280;22737;-73
2022/09/18 08:52:09;;;;;;;1.90;1.40;;;;;;;10.64;77.97;97359.23;106632;1280;22583;-72
2022/09/18 08:55:16;;;;;;;4.80;1.50;;;;;;;10.70;78.34;97354.45;104698;1280;23286;-70
2022/09/18 08:58:05;;;;;;;4.10;1.40;;;;;;;10.85;77.25;97356.11;105039;1286;25642;-71
2022/09/18 09:00:57;;;;;;;2.00;1.40;;;;;;;10.93;77.16;97350.33;105506;1286;22337;-74
2022/09/18 09:04:12;;;;;;;1.60;1.50;;;;;;;11.09;77.45;97355.60;104996;1286;138889;-71
2022/09/18 09:07:16;;;;;;;1.30;1.20;;;;;;;11.28;76.40;97353.97;105561;1286;22858;-74
2022/09/18 09:10:11;;;;;;;1.60;1.30;;;;;;;11.34;74.42;97349.80;105940;1285;138498;-73
2022/09/18 09:13:12;;;;;;;1.40;1.10;;;;;;;11.32;74.18;97353.52;105089;1286;22659;-72
2022/09/18 09:19:27;;;;;;;1.10;1.00;;;;;;;11.03;74.17;97348.30;105132;1286;23172;-72
2022/09/18 09:22:16;;;;;;;1.40;1.00;;;;;;;10.93;74.12;97348.30;104843;1286;24311;-71
2022/09/18 09:25:04;;;;;;;;;;;;;;;10.89;74.70;97349.09;104816;1286;22529;-70
2022/09/18 09:27:57;;;;;;;1.80;1.00;;;;;;;10.84;75.00;97353.00;104755;1286;124630;-70
2022/09/18 09:30:47;;;;;;;1.60;1.10;;;;;;;10.78;75.52;97353.77;104947;1286;24450;-74
2022/09/18 09:33:56;;;;;;;2.10;1.00;;;;;;;10.71;76.11;97353.79;104455;1286;138429;-70
2022/09/18 09:36:47;;;;;;;1.10;0.90;;;;;;;10.57;77.01;97357.81;105618;1281;23272;-70
2022/09/18 09:39:26;;;;;;;1.80;1.00;;;;;;;10.45;77.85;97351.83;108188;1281;138529;-71
2022/09/18 09:42:06;;;;;;;2.00;1.30;;;;;;;10.42;79.15;97351.33;105933;1281;23220;-72
2022/09/18 09:44:34;;;;;;;1.30;1.00;;;;;;;10.47;79.64;97350.67;106422;1281;138634;-71
2022/09/18 09:47:27;;;;;;;1.10;1.10;;;;;;;10.62;80.87;97349.91;105505;1280;25388;-71
2022/09/18 09:50:16;;;;;;;1.60;1.40;;;;;;;10.91;80.66;97346.79;105432;1280;138786;-71
2022/09/18 09:52:48;;;;;;;1.60;1.30;;;;;;;11.21;81.84;97346.19;105445;1281;25238;-70
2022/09/18 09:55:25;;;;;;;2.30;1.20;;;;;;;11.44;77.88;97343.21;105480;1281;24304;-71
2022/09/18 09:58:12;;;;;;;1.30;1.20;;;;;;;11.53;78.16;97341.99;105348;1280;25269;-71
2022/09/18 10:01:16;;;;;;;2.00;1.50;;;;;;;11.54;76.34;97346.46;106212;1281;25227;-72
2022/09/18 10:03:46;;;;;;;2.00;1.20;;;;;;;11.44;76.12;97346.88;105951;1280;138277;-71
2022/09/18 10:06:26;;;;;;;1.20;1.10;;;;;;;11.36;75.59;97351.38;105791;1281;25217;-72
2022/09/18 10:09:04;;;;;;;1.40;1.30;;;;;;;11.34;76.78;97352.47;105478;1281;138401;-71
2022/09/18 10:11:36;;;;;;;1.30;0.90;;;;;;;11.46;75.52;97352.10;105586;1281;22992;-72
2022/09/18 10:14:16;;;;;;;0.70;0.70;;;;;;;11.69;75.57;97356.48;106317;1280;138912;-70
2022/09/18 10:16:47;;;;;;;1.50;0.90;;;;;;;11.72;73.46;97353.16;105426;1281;24284;-72
2022/09/18 10:19:20;;;;;;;1.90;0.80;;;;;;;11.65;73.08;97354.87;105656;1281;22567;-71
2022/09/18 10:21:52;;;;;;;1.40;1.30;;;;;;;11.53;72.22;97356.83;105429;1280;138271;-72
2022/09/18 10:24:28;;;;;;;1.40;1.00;;;;;;;11.42;72.41;97354.20;106333;1280;26098;-72
2022/09/18 10:27:02;;;;;;;1.40;1.30;;;;;;;11.35;73.02;97362.02;105477;1280;139133;-70
2022/09/18 10:29:30;;;;;;;1.40;1.00;;;;;;;11.40;72.73;97364.62;106376;1281;22699;-70
2022/09/18 10:32:00;;;;;;;1.30;1.20;;;;;;;11.44;73.24;97362.91;105659;1280;138690;-73
2022/09/18 10:34:42;;;;;;;2.00;1.20;;;;;;;11.46;73.50;97363.98;105691;1280;22549;-71
2022/09/18 10:37:27;;;;;;;1.80;0.80;;;;;;;11.46;71.80;97371.36;105608;1280;25467;-71
2022/09/18 10:40:00;;;;;;;0.80;0.80;;;;;;;11.43;71.53;97371.32;105357;1280;24240;-72
2022/09/18 10:42:31;;;;;;;1.30;1.10;;;;;;;11.46;72.53;97375.23;105792;1281;22562;-72
2022/09/18 10:45:28;;;;;;;1.80;1.50;;;;;;;11.76;72.66;97371.95;105452;1280;138802;-72
2022/09/18 10:48:15;;;;;;;1.40;0.80;;;;;;;12.17;72.89;97373.52;105818;1279;24326;-72
2022/09/18 10:50:59;;;;;;;1.10;1.00;;;;;;;12.52;71.72;97363.89;105916;1281;138889;-71
2022/09/18 10:53:41;;;;;;;1.20;0.80;;;;;;;12.97;71.77;97355.70;106095;1280;24389;-72
2022/09/18 10:56:18;;;;;;;0.80;0.80;;;;;;;13.26;69.81;97356.08;105363;1281;138388;-71
2022/09/18 10:58:46;;;;;;;2.00;0.90;;;;;;;13.20;67.33;97357.17;105329;1283;22713;-70
2022/09/18 11:01:14;;;;;;;1.90;0.80;;;;;;;13.06;66.79;97359.29;105494;1280;22565;-71
2022/09/18 11:04:00;;;;;;;1.40;0.60;;;;;;;12.93;66.03;97356.08;105285;1281;138373;-71
2022/09/18 11:06:32;;;;;;;1.80;0.70;;;;;;;12.81;66.12;97354.76;105534;1280;31081;-72
2022/09/18 11:09:09;;;;;;;1.00;0.70;;;;;;;12.68;66.50;97354.86;105305;1281;137814;-70
2022/09/18 11:11:44;;;;;;;0.80;0.60;;;;;;;12.46;66.26;97363.98;105428;1281;23006;-69
2022/09/18 11:14:23;;;;;;;1.20;1.10;;;;;;;12.20;68.46;97373.35;105365;1281;138032;-69
2022/09/18 11:16:59;;;;;;;1.90;1.00;;;;;;;11.87;70.28;97378.45;105439;1281;22855;-68
2022/09/18 11:19:33;;;;;;;1.50;1.00;;;;;;;11.61;72.98;97381.84;105451;1281;22555;-69
2022/09/18 11:22:30;;;;;;;3.10;1.20;;;;;;;11.42;74.29;97380.85;105161;1281;25529;-69
2022/09/18 11:25:26;;;;;;;2.10;1.20;;;;;;;11.37;75.96;97379.89;105385;1281;24754;-69
2022/09/18 11:27:59;;;;;;;1.60;1.50;;;;;;;11.37;77.21;97387.91;105242;1281;22503;-70
2022/09/18 11:30:33;;;;;;;1.70;1.40;;;;;;;11.33;78.34;97389.55;105456;1281;22545;-69
2022/09/18 11:33:11;;;;;;;1.40;1.30;;;;;;;11.25;77.51;97392.13;105366;1281;138456;-70
2022/09/18 11:35:45;;;;;;;1.50;1.40;;;;;;;11.13;76.47;97387.95;106244;1281;23664;-70
2022/09/18 11:38:18;;;;;;;1.90;1.60;;;;;;;11.02;77.04;97390.91;105407;1281;138835;-70
2022/09/18 11:40:50;;;;;;;1.30;1.20;;;;;;;10.95;77.65;97395.82;105345;1281;23438;-70
2022/09/18 11:43:28;;;;;;;1.70;1.50;;;;;;;10.91;78.74;97399.31;105342;1281;25271;-69
2022/09/18 11:46:09;;;;;;;2.70;1.80;;;;;;;10.95;79.82;97393.97;105285;1281;25380;-68
2022/09/18 11:49:04;;;;;;;1.30;1.00;;;;;;;11.00;78.81;97399.46;105409;1281;24215;-69
2022/09/18 11:51:37;;;;;;;0.60;0.60;;;;;;;11.11;78.94;97398.64;105368;1281;138457;-70
2022/09/18 11:54:17;;;;;;;1.40;0.70;;;;;;;11.18;78.70;97398.63;105415;1281;25660;-69
2022/09/18 11:56:48;;;;;;;0.80;0.60;;;;;;;11.31;78.88;97398.55;105166;1284;138791;-69
2022/09/18 11:59:46;;;;;;;1.00;0.70;;;;;;;11.43;78.36;97400.41;105739;1281;22552;-70
2022/09/18 12:02:19;;;;;;;1.80;0.80;;;;;;;11.45;78.90;97401.90;105277;1281;139198;-71
2022/09/18 12:04:51;;;;;;;2.40;0.70;;;;;;;11.46;78.40;97403.31;105516;1281;22563;-71
2022/09/18 12:07:31;;;;;;;1.40;1.00;;;;;;;11.44;78.61;97400.98;105305;1281;24451;-70
2022/09/18 12:10:24;;;;;;;1.40;1.00;;;;;;;11.43;78.50;97402.21;105501;1281;22691;-71
2022/09/18 12:13:20;;;;;;;1.10;1.00;;;;;;;11.43;78.89;97403.64;105454;1281;25267;-71